Carolina Forest, South Carolina
Current Conditions -  °F | °C
As of 8:48 AM on Wednesday 22 Oct 2014 (Local Time) from KMYR Reporting Station
Clear Clear  
Wind Chill: 13°   Ceiling: Unl
Heat Index: 13°   Visibility: 10mi
Dew Point:   Wind: 14mph
Humidity: 54%   Direction: 340°NNW
Pressure: 30.01"   Gusts: 20mph
Location:  33.7109°N, 78.9964°W
Report Text: KMYR 221248Z 34012G17KT 10SM CLR 13/04 A3001
Loading
Personal Weather Stations






























Interactive Weather Map
Tropical Storm Tracking
New forecast layout! Learn more

10-Day Weather Forecast

Advertisements
Track Severe Weather on mobile